Time;durP1;ratioP1;P1;durP2;ratioP2;P2;SDS_P1;SDS_P2;PMS_P1;PMS_P2;Temp;Humidity;BMP_temperature;BMP_pressure;BME280_temperature;BME280_humidity;BME280_pressure;Samples;Min_cycle;Max_cycle;Signal;HPM_P1;HPM_P2
2022/01/27 00:00:43;;;;;;;40.20;21.38;;;22.30;59.40;;;;;;5034108;28;20498;-71
2022/01/27 00:03:22;;;;;;;43.97;21.10;;;22.30;59.00;;;;;;5028963;28;20100;-71
2022/01/27 00:05:57;;;;;;;40.40;20.92;;;22.30;58.60;;;;;;5016776;28;20494;-71
2022/01/27 00:08:31;;;;;;;34.50;19.80;;;22.30;58.30;;;;;;5035062;28;20566;-71
2022/01/27 00:11:07;;;;;;;35.78;19.83;;;22.30;58.20;;;;;;5034501;28;20033;-71
2022/01/27 00:13:43;;;;;;;36.95;21.00;;;22.30;58.10;;;;;;5050085;28;20167;-70
2022/01/27 00:18:42;;;;;;;35.20;20.17;;;22.30;58.00;;;;;;5034528;28;20037;-71
2022/01/27 00:21:13;;;;;;;35.50;19.08;;;22.30;58.00;;;;;;5017434;28;20490;-72
2022/01/27 00:23:41;;;;;;;33.08;19.70;;;22.30;58.00;;;;;;5034492;28;20021;-71
2022/01/27 00:26:07;;;;;;;38.55;19.95;;;22.30;57.90;;;;;;5034068;28;20025;-71
2022/01/27 00:28:33;;;;;;;33.20;18.85;;;22.30;58.00;;;;;;5033352;28;20107;-71
2022/01/27 00:30:59;;;;;;;36.50;19.00;;;22.20;57.80;;;;;;5016538;28;20478;-71
2022/01/27 00:33:25;;;;;;;39.25;19.65;;;22.30;57.90;;;;;;4999940;28;20083;-72
2022/01/27 00:35:50;;;;;;;27.48;19.52;;;21.80;54.20;;;;;;5034050;28;20029;-72
2022/01/27 00:38:16;;;;;;;28.75;18.45;;;18.90;43.10;;;;;;5015916;28;20029;-70
2022/01/27 00:40:42;;;;;;;29.20;16.65;;;19.30;47.70;;;;;;5000127;28;20025;-70
2022/01/27 00:43:08;;;;;;;24.58;15.50;;;19.90;49.00;;;;;;5034283;28;20564;-70
2022/01/27 00:45:35;;;;;;;24.48;15.30;;;20.30;49.80;;;;;;5016606;28;20029;-70
2022/01/27 00:48:03;;;;;;;24.25;14.95;;;20.70;50.40;;;;;;5034177;28;20053;-71
2022/01/27 00:50:31;;;;;;;21.75;13.77;;;21.00;50.90;;;;;;5033453;28;20041;-71
2022/01/27 00:52:59;;;;;;;19.83;12.40;;;21.20;50.90;;;;;;5014767;28;20585;-71
2022/01/27 00:55:27;;;;;;;25.40;12.48;;;21.30;50.90;;;;;;5023309;28;20363;-71
2022/01/27 00:58:29;;;;;;;18.60;10.85;;;21.50;51.00;;;;;;5032885;28;20112;-71
2022/01/27 01:00:59;;;;;;;21.33;10.50;;;21.60;51.00;;;;;;5013941;28;20120;-71
2022/01/27 01:03:31;;;;;;;20.88;10.85;;;21.60;51.40;;;;;;5033382;28;20025;-71
2022/01/27 01:06:17;;;;;;;18.90;10.63;;;21.60;51.60;;;;;;5033945;28;20026;-71
2022/01/27 01:14:28;;;;;;;19.52;9.57;;;21.70;51.80;;;;;;5033368;28;20065;-71
2022/01/27 01:16:59;;;;;;;14.93;8.45;;;21.70;52.00;;;;;;5033519;28;20026;-71
2022/01/27 01:33:26;;;;;;;16.35;7.50;;;21.80;52.70;;;;;;4972477;28;20032;-71
2022/01/27 01:36:01;;;;;;;13.45;7.30;;;21.80;52.80;;;;;;5033273;28;20029;-71
2022/01/27 01:38:30;;;;;;;13.40;7.50;;;21.80;52.90;;;;;;5033190;28;20033;-71
2022/01/27 01:40:56;;;;;;;15.02;7.53;;;21.80;52.90;;;;;;5015250;28;20386;-71
2022/01/27 01:43:22;;;;;;;14.48;7.63;;;21.80;53.00;;;;;;5033504;28;20152;-71
2022/01/27 01:45:49;;;;;;;17.70;6.95;;;21.80;53.10;;;;;;5015269;28;20021;-71
2022/01/27 01:48:16;;;;;;;11.77;6.50;;;21.80;53.10;;;;;;5033154;28;20036;-71
2022/01/27 01:50:43;;;;;;;11.85;6.18;;;21.80;53.20;;;;;;4993064;23;20131;-69
2022/01/27 01:53:09;;;;;;;13.35;6.43;;;21.80;53.30;;;;;;5030125;28;20481;-69
2022/01/27 01:55:34;;;;;;;13.13;6.30;;;21.80;53.30;;;;;;4995757;28;20022;-68
2022/01/27 01:58:01;;;;;;;12.50;6.65;;;21.80;53.50;;;;;;4995304;28;20080;-69
2022/01/27 02:00:28;;;;;;;13.27;6.45;;;21.80;53.50;;;;;;5012507;28;20422;-69
2022/01/27 02:02:54;;;;;;;12.82;6.32;;;21.80;53.70;;;;;;5012933;28;20470;-69
2022/01/27 02:05:24;;;;;;;12.70;5.85;;;21.80;54.30;;;;;;4995486;28;20379;-69
2022/01/27 02:19:14;;;;;;;14.38;6.25;;;21.80;54.20;;;;;;5012473;28;20111;-69
2022/01/27 02:22:00;;;;;;;11.15;5.65;;;21.80;54.20;;;;;;5012197;28;20033;-70
2022/01/27 02:24:28;;;;;;;10.50;5.68;;;21.80;54.20;;;;;;5010969;28;20478;-69
2022/01/27 02:26:55;;;;;;;9.65;5.80;;;21.80;54.50;;;;;;5011140;28;20026;-69
2022/01/27 02:29:22;;;;;;;14.80;5.95;;;21.80;54.70;;;;;;5010724;28;20037;-69
2022/01/27 02:31:49;;;;;;;9.88;5.50;;;21.80;54.40;;;;;;5010978;28;20074;-69
2022/01/27 02:34:15;;;;;;;10.57;5.45;;;21.80;54.60;;;;;;5011693;28;20398;-68
2022/01/27 02:36:40;;;;;;;12.32;5.70;;;21.80;55.10;;;;;;5012034;28;20022;-69
2022/01/27 02:39:09;;;;;;;10.02;5.30;;;21.80;55.00;;;;;;5012270;28;20049;-68
2022/01/27 02:41:50;;;;;;;11.10;5.30;;;21.80;54.60;;;;;;4994305;28;20109;-69
2022/01/27 02:44:47;;;;;;;11.60;5.28;;;21.80;54.70;;;;;;5009508;28;20041;-69
2022/01/27 02:47:15;;;;;;;9.30;5.38;;;21.80;54.70;;;;;;5007342;28;20049;-68
2022/01/27 02:49:42;;;;;;;10.40;5.43;;;21.80;54.70;;;;;;4993060;28;20030;-69
2022/01/27 02:52:08;;;;;;;10.18;5.30;;;21.80;54.80;;;;;;5010349;28;20120;-69
2022/01/27 02:54:35;;;;;;;9.27;5.28;;;21.80;54.90;;;;;;5010653;28;20044;-68
2022/01/27 02:57:01;;;;;;;10.07;5.60;;;21.80;55.00;;;;;;4994710;28;20060;-69
2022/01/27 02:59:27;;;;;;;10.43;5.70;;;21.80;55.00;;;;;;5011556;28;20549;-69
2022/01/27 03:01:53;;;;;;;8.95;5.20;;;21.80;54.90;;;;;;5010794;28;20026;-69
2022/01/27 03:04:20;;;;;;;10.13;5.20;;;21.80;55.70;;;;;;4991059;28;20038;-68
2022/01/27 03:06:46;;;;;;;9.43;4.95;;;21.80;55.00;;;;;;4992368;28;20027;-69
2022/01/27 03:09:13;;;;;;;8.85;4.90;;;21.80;55.10;;;;;;4991330;28;20113;-69
2022/01/27 03:11:56;;;;;;;9.25;5.22;;;21.70;55.00;;;;;;4990935;28;20040;-69
2022/01/27 03:14:24;;;;;;;8.43;4.80;;;21.70;55.10;;;;;;5002479;28;20030;-69
2022/01/27 03:17:01;;;;;;;11.15;4.95;;;21.70;55.10;;;;;;5010776;28;20033;-69
2022/01/27 03:19:27;;;;;;;10.88;4.95;;;21.70;55.20;;;;;;5010211;28;20022;-69
2022/01/27 03:21:54;;;;;;;9.48;4.70;;;21.70;55.50;;;;;;5010552;28;20035;-69
2022/01/27 03:24:24;;;;;;;10.45;5.20;;;21.70;55.90;;;;;;5010431;28;20053;-69
2022/01/27 03:26:50;;;;;;;8.70;4.93;;;21.70;55.90;;;;;;5011954;28;20045;-69
2022/01/27 03:29:17;;;;;;;7.43;4.60;;;21.60;55.70;;;;;;4994322;28;20030;-69
2022/01/27 03:31:45;;;;;;;8.18;4.65;;;21.60;56.00;;;;;;5010419;28;20092;-69
2022/01/27 03:34:11;;;;;;;8.65;4.95;;;21.60;55.70;;;;;;5011481;28;20037;-69
2022/01/27 03:36:37;;;;;;;9.60;4.78;;;21.60;55.70;;;;;;5011689;28;20034;-68
2022/01/27 03:39:04;;;;;;;9.88;4.88;;;21.60;55.60;;;;;;5010454;28;20052;-69
2022/01/27 03:41:33;;;;;;;9.52;4.80;;;21.60;55.60;;;;;;5010157;28;20029;-68
2022/01/27 03:43:59;;;;;;;9.32;4.85;;;21.60;56.10;;;;;;4992208;28;20027;-69
2022/01/27 03:46:25;;;;;;;7.90;4.50;;;21.60;55.70;;;;;;4991916;28;20542;-69
2022/01/27 03:48:50;;;;;;;8.30;4.53;;;21.60;56.00;;;;;;4992023;28;20034;-69
2022/01/27 03:51:16;;;;;;;8.70;4.82;;;21.60;56.10;;;;;;4991632;28;20053;-68
2022/01/27 03:53:42;;;;;;;8.15;4.57;;;21.60;55.80;;;;;;4991010;28;20077;-69
2022/01/27 03:56:08;;;;;;;8.27;4.80;;;21.60;56.00;;;;;;5023686;28;20483;-69
2022/01/27 03:58:34;;;;;;;8.15;4.53;;;21.70;55.80;;;;;;5023171;28;20538;-69
2022/01/27 04:01:04;;;;;;;9.23;5.15;;;21.60;55.80;;;;;;4999167;28;20470;-69
2022/01/27 04:03:32;;;;;;;;;;;21.60;55.80;;;;;;5013276;28;20022;-69
2022/01/27 04:06:05;;;;;;;7.80;4.60;;;21.60;55.90;;;;;;5015098;28;19916;-69
2022/01/27 04:08:32;;;;;;;8.38;4.75;;;21.60;55.90;;;;;;5014723;28;20038;-69
2022/01/27 04:10:58;;;;;;;7.90;4.20;;;21.60;55.80;;;;;;5014536;28;20129;-69
2022/01/27 04:13:23;;;;;;;9.13;4.40;;;21.60;56.00;;;;;;5014871;28;20101;-69
2022/01/27 04:15:49;;;;;;;9.90;4.55;;;21.60;56.00;;;;;;5014898;28;20276;-69
2022/01/27 04:18:15;;;;;;;8.40;4.70;;;21.60;56.00;;;;;;4997290;28;20038;-69
2022/01/27 04:20:42;;;;;;;8.30;4.82;;;21.60;56.10;;;;;;5014098;28;20026;-69
2022/01/27 04:23:09;;;;;;;7.78;4.18;;;21.60;56.10;;;;;;5014637;28;20101;-69
2022/01/27 04:25:37;;;;;;;12.25;3.92;;;21.60;56.00;;;;;;4997390;28;20033;-69
2022/01/27 04:28:07;;;;;;;12.93;4.47;;;21.60;56.10;;;;;;5013368;28;20437;-69
2022/01/27 04:30:54;;;;;;;7.60;3.85;;;21.60;56.10;;;;;;5014183;28;20077;-69
2022/01/27 04:33:24;;;;;;;9.00;4.53;;;21.60;56.00;;;;;;5013321;28;20104;-69
2022/01/27 04:35:50;;;;;;;8.90;4.93;;;21.60;56.00;;;;;;5014451;28;20120;-69
2022/01/27 04:38:40;;;;;;;11.73;4.80;;;21.50;56.10;;;;;;5014466;28;20088;-69
2022/01/27 04:41:15;;;;;;;9.32;4.88;;;21.60;56.20;;;;;;4994638;28;20026;-68
2022/01/27 04:43:50;;;;;;;9.00;4.65;;;21.60;56.10;;;;;;4993688;28;20434;-69
2022/01/27 04:46:33;;;;;;;8.40;4.18;;;21.60;56.10;;;;;;4994775;28;20479;-69
2022/01/27 04:49:02;;;;;;;12.75;4.65;;;21.60;56.10;;;;;;4998292;28;20030;-68
2022/01/27 04:51:29;;;;;;;7.80;4.05;;;21.60;56.10;;;;;;5012711;28;20046;-68
2022/01/27 04:54:17;;;;;;;10.15;4.38;;;21.60;56.00;;;;;;5014262;28;20100;-68
2022/01/27 04:56:47;;;;;;;6.45;4.15;;;21.60;56.10;;;;;;4996810;28;20029;-69
2022/01/27 04:59:21;;;;;;;8.40;4.43;;;21.60;56.00;;;;;;5012447;28;20053;-68
2022/01/27 05:01:51;;;;;;;7.10;4.00;;;21.60;56.00;;;;;;5013960;28;20022;-69
2022/01/27 05:04:19;;;;;;;8.02;4.13;;;21.60;56.00;;;;;;5013932;28;20112;-69
2022/01/27 05:06:47;;;;;;;7.88;3.88;;;21.60;55.90;;;;;;5013913;28;20030;-69
2022/01/27 05:09:13;;;;;;;7.07;4.05;;;21.60;56.00;;;;;;5013588;28;20029;-68
2022/01/27 05:11:48;;;;;;;9.07;3.55;;;21.60;56.10;;;;;;5012191;28;20030;-68
2022/01/27 05:14:25;;;;;;;6.78;3.83;;;21.60;56.10;;;;;;5013495;28;20091;-68
2022/01/27 05:16:52;;;;;;;6.75;3.95;;;21.50;55.90;;;;;;4996480;28;20043;-68
2022/01/27 05:19:17;;;;;;;6.25;3.53;;;21.50;56.20;;;;;;4994724;28;20037;-69
2022/01/27 05:21:43;;;;;;;6.75;3.97;;;21.60;56.20;;;;;;5012286;28;20608;-69
2022/01/27 05:24:10;;;;;;;7.82;4.03;;;21.60;56.10;;;;;;5012153;28;20026;-68
2022/01/27 05:26:38;;;;;;;9.75;4.03;;;21.50;56.00;;;;;;5013694;28;20111;-68
2022/01/27 05:29:06;;;;;;;7.30;3.70;;;21.60;56.20;;;;;;5013305;28;20030;-68
2022/01/27 05:31:32;;;;;;;10.45;4.15;;;21.50;56.20;;;;;;5011908;28;20049;-68
2022/01/27 05:33:58;;;;;;;6.38;3.70;;;21.60;56.20;;;;;;5013495;28;20034;-68
2022/01/27 05:36:24;;;;;;;6.80;3.60;;;21.50;56.20;;;;;;5012233;28;20026;-68
2022/01/27 05:38:50;;;;;;;5.57;3.30;;;21.50;56.10;;;;;;5011745;28;20030;-68
2022/01/27 05:41:16;;;;;;;6.60;3.80;;;21.50;56.10;;;;;;5012852;28;20422;-68
2022/01/27 05:43:43;;;;;;;5.53;3.53;;;21.50;56.20;;;;;;5010923;28;20058;-68
2022/01/27 05:46:09;;;;;;;4.93;3.40;;;21.50;56.30;;;;;;5012683;28;20092;-68
2022/01/27 05:48:34;;;;;;;7.40;3.53;;;21.50;56.20;;;;;;5012088;28;20486;-68
2022/01/27 05:51:00;;;;;;;5.72;3.35;;;21.60;56.20;;;;;;5012253;28;20034;-68
2022/01/27 05:53:26;;;;;;;6.40;3.58;;;21.60;56.30;;;;;;5011585;28;20417;-68
2022/01/27 05:55:52;;;;;;;7.80;3.50;;;21.50;56.20;;;;;;5012836;28;20030;-68
2022/01/27 05:58:18;;;;;;;4.95;3.15;;;21.50;56.20;;;;;;5011577;28;20044;-68
2022/01/27 06:00:44;;;;;;;6.10;3.75;;;21.50;56.10;;;;;;5012080;28;20022;-68
2022/01/27 06:03:09;;;;;;;7.00;3.70;;;21.50;56.10;;;;;;4995404;28;20461;-68
2022/01/27 06:05:35;;;;;;;7.60;3.60;;;21.60;56.10;;;;;;5012774;28;20026;-68
2022/01/27 06:08:01;;;;;;;7.20;3.80;;;21.60;56.10;;;;;;5011696;28;20386;-68
2022/01/27 06:10:26;;;;;;;6.15;3.70;;;21.60;56.10;;;;;;4991049;28;20073;-69
2022/01/27 06:12:56;;;;;;;7.60;3.50;;;21.60;56.10;;;;;;4992811;28;20495;-68
2022/01/27 06:15:24;;;;;;;6.75;3.72;;;21.60;56.00;;;;;;5011268;28;20030;-69
2022/01/27 06:17:49;;;;;;;5.65;3.65;;;21.60;56.00;;;;;;5011564;28;20030;-69
2022/01/27 06:20:17;;;;;;;10.55;4.03;;;21.50;56.00;;;;;;5010085;28;20449;-69
2022/01/27 06:22:43;;;;;;;8.20;3.30;;;21.50;56.60;;;;;;5011256;28;20036;-69
2022/01/27 06:25:10;;;;;;;8.07;3.63;;;21.60;56.10;;;;;;5011174;28;20382;-68
2022/01/27 06:27:36;;;;;;;7.05;3.60;;;21.60;56.20;;;;;;5012089;28;20061;-68
2022/01/27 06:30:05;;;;;;;8.00;3.72;;;21.50;56.10;;;;;;5011903;28;20092;-68
2022/01/27 06:32:31;;;;;;;6.90;3.50;;;21.50;56.10;;;;;;4995183;28;20044;-68
2022/01/27 06:34:57;;;;;;;7.30;3.50;;;21.50;56.10;;;;;;5012382;28;20076;-68
2022/01/27 06:37:23;;;;;;;8.50;3.38;;;21.50;56.10;;;;;;4994765;28;20046;-69
2022/01/27 06:39:49;;;;;;;5.20;3.60;;;21.50;56.10;;;;;;5011330;28;20053;-68
2022/01/27 06:42:15;;;;;;;6.88;3.50;;;21.50;56.10;;;;;;5011052;28;20026;-68
2022/01/27 06:44:41;;;;;;;4.72;3.10;;;21.50;56.20;;;;;;5012155;28;20080;-68
2022/01/27 06:47:06;;;;;;;5.85;3.17;;;21.50;56.20;;;;;;5012284;28;20502;-68
2022/01/27 06:49:32;;;;;;;6.32;3.70;;;21.50;56.20;;;;;;5011732;28;20429;-68
2022/01/27 06:51:58;;;;;;;5.90;3.55;;;21.50;56.20;;;;;;5012079;28;20108;-68
2022/01/27 06:54:24;;;;;;;8.07;3.80;;;21.50;56.20;;;;;;4994899;28;20065;-69
2022/01/27 06:56:49;;;;;;;6.53;3.47;;;21.50;56.20;;;;;;5012221;28;20025;-68
2022/01/27 06:59:15;;;;;;;6.65;3.45;;;21.50;56.20;;;;;;5010339;28;20030;-69
2022/01/27 07:01:41;;;;;;;6.43;3.05;;;21.50;56.20;;;;;;5010641;28;20033;-68
2022/01/27 07:04:07;;;;;;;6.63;3.70;;;21.50;56.10;;;;;;5010901;28;20030;-68
2022/01/27 07:06:34;;;;;;;6.75;3.25;;;21.50;56.20;;;;;;4994431;28;20022;-68
2022/01/27 07:09:00;;;;;;;7.55;3.78;;;21.50;56.20;;;;;;5010596;28;20398;-68
2022/01/27 07:11:25;;;;;;;7.45;3.47;;;21.50;56.10;;;;;;5011765;28;20030;-68
2022/01/27 07:13:51;;;;;;;6.63;3.13;;;21.50;56.10;;;;;;4994302;28;20022;-68
2022/01/27 07:16:17;;;;;;;8.18;3.38;;;21.50;56.30;;;;;;5011908;28;20095;-69
2022/01/27 07:18:43;;;;;;;5.50;3.20;;;21.50;56.20;;;;;;4994293;28;20033;-69
2022/01/27 07:21:08;;;;;;;5.97;3.45;;;21.50;56.20;;;;;;4977408;28;20030;-68
2022/01/27 07:23:34;;;;;;;5.25;3.00;;;21.50;56.10;;;;;;5010768;28;20034;-68
2022/01/27 07:26:00;;;;;;;8.82;3.40;;;21.50;56.20;;;;;;5011743;28;20478;-68
2022/01/27 07:28:26;;;;;;;6.55;3.30;;;21.50;56.10;;;;;;5011741;28;20482;-68
2022/01/27 07:30:51;;;;;;;5.43;3.35;;;21.50;56.20;;;;;;4993950;28;20490;-68
2022/01/27 07:33:17;;;;;;;7.15;3.10;;;21.50;56.20;;;;;;5010515;28;20034;-68
2022/01/27 07:35:43;;;;;;;7.22;3.30;;;21.50;56.20;;;;;;5004497;28;20031;-68
2022/01/27 07:38:09;;;;;;;8.48;3.70;;;21.50;56.10;;;;;;5006012;28;20486;-68
2022/01/27 07:40:34;;;;;;;5.55;3.50;;;21.50;56.00;;;;;;5013650;28;20018;-68
2022/01/27 07:43:00;;;;;;;8.98;3.70;;;21.50;55.90;;;;;;5014237;28;20026;-69
2022/01/27 07:45:26;;;;;;;5.85;3.20;;;21.50;55.90;;;;;;4998069;28;20178;-69
2022/01/27 07:47:52;;;;;;;7.80;3.72;;;21.50;56.00;;;;;;5013775;28;20068;-68
2022/01/27 07:50:19;;;;;;;12.27;3.60;;;21.50;56.40;;;;;;5013442;23;20062;-72
2022/01/27 07:52:45;;;;;;;6.75;3.42;;;21.50;56.40;;;;;;5051769;28;20109;-72
2022/01/27 07:55:11;;;;;;;7.13;3.58;;;21.60;56.50;;;;;;5054356;28;20489;-72
2022/01/27 07:57:38;;;;;;;10.85;4.15;;;21.60;56.40;;;;;;5054417;28;20032;-72
2022/01/27 08:00:05;;;;;;;9.32;4.15;;;21.60;56.50;;;;;;5043775;28;20474;-72
2022/01/27 08:02:38;;;;;;;7.55;3.70;;;21.60;56.50;;;;;;5033049;28;20151;-72
2022/01/27 08:05:04;;;;;;;12.05;3.72;;;21.60;56.50;;;;;;5034817;28;20108;-72
2022/01/27 08:07:30;;;;;;;11.90;3.70;;;21.60;56.50;;;;;;5045241;28;20025;-72
2022/01/27 08:09:55;;;;;;;11.45;3.80;;;21.50;56.50;;;;;;5054322;28;20029;-72
2022/01/27 08:12:21;;;;;;;8.95;3.90;;;21.50;56.40;;;;;;5054674;28;20029;-72
2022/01/27 08:14:47;;;;;;;9.13;3.88;;;21.50;56.30;;;;;;5054570;28;20401;-72
2022/01/27 08:17:14;;;;;;;16.63;4.30;;;21.50;56.40;;;;;;5053661;28;20025;-72
2022/01/27 08:19:40;;;;;;;9.93;5.00;;;21.50;56.60;;;;;;5050094;28;20032;-72
2022/01/27 08:22:07;;;;;;;17.65;6.07;;;21.50;56.70;;;;;;5053026;28;20547;-71
2022/01/27 08:24:33;;;;;;;19.77;7.47;;;21.50;57.00;;;;;;5053955;28;20025;-72
2022/01/27 08:27:03;;;;;;;18.13;7.50;;;21.50;57.10;;;;;;5053816;28;20025;-72
2022/01/27 08:29:36;;;;;;;19.13;6.47;;;21.50;57.00;;;;;;5053489;28;20037;-72
2022/01/27 08:32:02;;;;;;;21.55;6.28;;;21.50;57.00;;;;;;5054214;28;20025;-71
2022/01/27 08:34:33;;;;;;;21.67;8.05;;;21.50;57.30;;;;;;5054320;28;20032;-72
2022/01/27 08:37:02;;;;;;;18.80;6.85;;;21.50;56.30;;;;;;5052460;28;20112;-72
2022/01/27 08:39:28;;;;;;;15.85;6.75;;;21.50;56.30;;;;;;5053608;28;20029;-72
2022/01/27 08:41:54;;;;;;;21.55;5.57;;;21.50;56.30;;;;;;5054179;28;20036;-72
2022/01/27 08:44:20;;;;;;;15.98;6.13;;;21.50;56.50;;;;;;5052822;28;20021;-72
2022/01/27 08:46:46;;;;;;;16.25;5.47;;;21.50;56.60;;;;;;5053912;28;20054;-72
2022/01/27 08:49:12;;;;;;;17.80;6.18;;;21.50;56.50;;;;;;5053728;28;20446;-72
2022/01/27 08:51:37;;;;;;;14.60;5.30;;;21.50;56.50;;;;;;5052248;28;20087;-72
2022/01/27 08:54:03;;;;;;;18.27;5.30;;;21.50;56.50;;;;;;5052408;28;20111;-72
2022/01/27 08:56:31;;;;;;;16.35;5.03;;;21.40;56.50;;;;;;5052040;28;20063;-72
2022/01/27 08:58:57;;;;;;;14.25;5.22;;;21.50;56.50;;;;;;5054215;28;20090;-72
2022/01/27 09:01:24;;;;;;;13.00;5.28;;;21.40;56.40;;;;;;5053499;28;20067;-72
2022/01/27 09:03:50;;;;;;;13.18;5.40;;;21.40;56.60;;;;;;5053965;28;20056;-72
2022/01/27 09:06:18;;;;;;;11.05;5.00;;;21.50;56.40;;;;;;5053840;28;20025;-72
2022/01/27 09:08:45;;;;;;;11.00;5.13;;;21.40;56.40;;;;;;5053052;28;20465;-72
2022/01/27 09:11:11;;;;;;;10.38;5.13;;;21.40;56.30;;;;;;5053020;28;20068;-72
2022/01/27 09:13:37;;;;;;;14.70;5.47;;;21.40;56.30;;;;;;5053138;28;20048;-72
2022/01/27 09:16:05;;;;;;;9.75;5.28;;;21.50;56.30;;;;;;5053161;28;20031;-73
2022/01/27 09:18:31;;;;;;;11.05;5.20;;;21.50;56.30;;;;;;5049821;28;20049;-72
2022/01/27 09:20:59;;;;;;;15.15;5.80;;;21.50;56.50;;;;;;5052734;28;20057;-72
2022/01/27 09:23:25;;;;;;;11.73;5.60;;;21.50;56.40;;;;;;5051866;28;20112;-72
2022/01/27 09:25:55;;;;;;;12.60;5.22;;;21.50;56.30;;;;;;5053062;28;20104;-72
2022/01/27 09:28:21;;;;;;;12.10;4.80;;;21.50;56.30;;;;;;5050122;28;20017;-73
2022/01/27 09:30:46;;;;;;;13.50;5.65;;;21.50;56.20;;;;;;5050040;28;20381;-72
2022/01/27 09:33:13;;;;;;;13.13;5.40;;;21.50;56.20;;;;;;5051652;28;20117;-72
2022/01/27 09:35:40;;;;;;;13.38;5.07;;;21.50;56.20;;;;;;5051985;28;20037;-71
2022/01/27 09:38:06;;;;;;;16.50;6.25;;;21.50;56.10;;;;;;5048648;28;20055;-72
2022/01/27 09:40:34;;;;;;;10.77;4.90;;;21.50;56.10;;;;;;5052523;28;20111;-72
2022/01/27 09:43:00;;;;;;;10.50;4.93;;;21.50;56.20;;;;;;5053141;28;20041;-72
2022/01/27 09:45:28;;;;;;;13.82;5.53;;;21.50;56.60;;;;;;5052274;28;20065;-72
2022/01/27 09:47:56;;;;;;;21.63;7.57;;;21.50;56.00;;;;;;5049629;28;20043;-73
2022/01/27 09:50:30;;;;;;;17.17;11.95;;;21.40;55.00;;;;;;5050977;28;20493;-73
2022/01/27 09:52:55;;;;;;;20.15;12.85;;;21.20;47.30;;;;;;5051780;28;20025;-72
2022/01/27 09:55:22;;;;;;;28.88;12.07;;;20.90;44.10;;;;;;5048772;28;20044;-74
2022/01/27 09:57:51;;;;;;;35.67;11.88;;;20.70;47.70;;;;;;5051975;28;20466;-74
2022/01/27 10:00:17;;;;;;;29.38;10.85;;;20.70;48.10;;;;;;5051148;28;20021;-73
2022/01/27 10:03:03;;;;;;;23.95;9.85;;;20.80;49.30;;;;;;5044230;28;20079;-72
2022/01/27 10:05:30;;;;;;;17.92;9.40;;;21.00;49.50;;;;;;5051624;28;20021;-72
2022/01/27 10:08:12;;;;;;;24.15;8.68;;;21.00;49.40;;;;;;5051201;28;20033;-72
2022/01/27 10:10:41;;;;;;;19.83;8.82;;;21.10;50.90;;;;;;5052312;28;20021;-72
2022/01/27 10:13:10;;;;;;;21.85;9.00;;;21.10;50.30;;;;;;5051893;28;20040;-72
2022/01/27 10:15:42;;;;;;;15.65;7.82;;;21.20;50.40;;;;;;5051377;28;20395;-72
2022/01/27 10:18:16;;;;;;;25.42;7.47;;;21.20;51.10;;;;;;5051903;28;20117;-72
2022/01/27 10:20:59;;;;;;;15.23;6.95;;;21.20;50.80;;;;;;5050648;28;20484;-71
2022/01/27 10:23:32;;;;;;;18.08;7.05;;;21.30;51.20;;;;;;5052062;28;20072;-71
2022/01/27 10:26:08;;;;;;;19.58;6.70;;;21.30;51.30;;;;;;5052506;28;20108;-72
2022/01/27 10:31:24;;;;;;;10.83;6.60;;;21.40;51.60;;;;;;5051954;28;20082;-72
2022/01/27 10:33:54;;;;;;;21.55;7.53;;;21.40;52.40;;;;;;5050839;28;20032;-71
2022/01/27 10:36:35;;;;;;;15.13;7.15;;;21.50;52.30;;;;;;5050948;28;20400;-72
2022/01/27 10:39:05;;;;;;;16.20;6.60;;;21.50;53.20;;;;;;5050177;28;20027;-72
2022/01/27 10:41:32;;;;;;;;;;;21.50;52.90;;;;;;5051956;28;20040;-72
2022/01/27 10:44:12;;;;;;;13.20;6.57;;;21.50;52.50;;;;;;5051907;28;19916;-72
2022/01/27 10:46:46;;;;;;;15.50;6.60;;;21.50;52.50;;;;;;5051742;28;20056;-72
2022/01/27 10:49:24;;;;;;;13.45;6.45;;;21.50;52.60;;;;;;5050315;28;20053;-71
2022/01/27 10:51:53;;;;;;;13.00;5.90;;;21.50;52.80;;;;;;5050443;28;20112;-72
2022/01/27 10:54:42;;;;;;;13.65;6.47;;;21.50;52.90;;;;;;5051885;28;20024;-72
2022/01/27 10:57:11;;;;;;;12.18;5.82;;;21.50;53.00;;;;;;5051704;28;20056;-71
2022/01/27 10:59:38;;;;;;;16.08;7.03;;;21.50;53.10;;;;;;5051043;28;20036;-72
2022/01/27 11:02:07;;;;;;;14.35;6.03;;;21.40;53.20;;;;;;5050353;28;20389;-72
2022/01/27 11:04:38;;;;;;;12.35;6.20;;;21.40;53.30;;;;;;5051783;28;20465;-72
2022/01/27 11:07:06;;;;;;;14.35;6.10;;;21.40;53.40;;;;;;5033919;28;20021;-72
2022/01/27 11:09:39;;;;;;;12.00;5.63;;;21.40;53.50;;;;;;5050945;28;20021;-72
2022/01/27 11:12:10;;;;;;;10.43;5.45;;;21.40;53.50;;;;;;5050916;28;20431;-72
2022/01/27 11:14:37;;;;;;;14.10;5.93;;;21.40;53.50;;;;;;5050355;28;20508;-72
2022/01/27 11:17:08;;;;;;;14.00;5.85;;;21.40;53.60;;;;;;5051700;28;20108;-72
2022/01/27 11:24:54;;;;;;;12.65;5.60;;;21.40;53.70;;;;;;5051654;28;20462;-72
2022/01/27 11:27:23;;;;;;;11.80;5.90;;;21.40;53.70;;;;;;5050320;28;20021;-73
2022/01/27 11:30:00;;;;;;;8.88;4.82;;;21.40;53.80;;;;;;5049327;28;20035;-73
2022/01/27 11:32:35;;;;;;;9.43;5.35;;;21.40;53.80;;;;;;5051404;28;20029;-72
2022/01/27 11:35:01;;;;;;;11.73;5.35;;;21.40;53.80;;;;;;5051150;28;20033;-72
2022/01/27 11:37:35;;;;;;;14.38;5.40;;;21.40;53.80;;;;;;5051054;28;20557;-71
2022/01/27 11:40:07;;;;;;;13.27;5.55;;;21.40;54.10;;;;;;5050597;28;20029;-71
2022/01/27 11:42:42;;;;;;;23.90;14.63;;;21.50;54.20;;;;;;5051205;28;20029;-72
2022/01/27 11:45:23;;;;;;;31.02;22.85;;;21.20;49.80;;;;;;5051191;28;20033;-72
2022/01/27 11:47:58;;;;;;;27.30;19.52;;;21.00;47.70;;;;;;5051022;28;20057;-71
2022/01/27 11:50:34;;;;;;;33.88;17.75;;;21.00;48.30;;;;;;5030706;28;20568;-71
2022/01/27 11:53:03;;;;;;;38.40;19.70;;;21.10;53.20;;;;;;5030202;28;20057;-72
2022/01/27 11:55:29;;;;;;;42.55;18.90;;;21.30;60.90;;;;;;5031205;28;20032;-71
2022/01/27 11:57:57;;;;;;;41.55;18.38;;;21.50;63.90;;;;;;5031862;28;20100;-71
2022/01/27 12:00:26;;;;;;;29.00;15.85;;;21.50;65.60;;;;;;5049565;28;20112;-72
2022/01/27 12:03:01;;;;;;;25.20;16.63;;;21.60;60.70;;;;;;5051014;28;20025;-71
2022/01/27 12:05:33;;;;;;;26.55;15.63;;;21.70;56.90;;;;;;5050964;28;20478;-71
2022/01/27 12:08:18;;;;;;;28.33;15.48;;;21.70;55.30;;;;;;5050762;28;20496;-72
2022/01/27 12:10:50;;;;;;;30.05;15.60;;;21.80;57.60;;;;;;5049347;28;20026;-72
2022/01/27 12:13:37;;;;;;;28.48;16.55;;;21.90;56.80;;;;;;5051110;28;20028;-71
2022/01/27 12:19:09;;;;;;;25.95;16.38;;;22.00;57.70;;;;;;5050650;28;20029;-73
2022/01/27 12:21:38;;;;;;;22.25;14.63;;;22.00;61.40;;;;;;5049450;28;20025;-73
2022/01/27 12:24:15;;;;;;;24.48;15.15;;;22.00;57.60;;;;;;5050485;28;20064;-71
2022/01/27 12:26:48;;;;;;;22.58;14.30;;;22.10;59.00;;;;;;5054479;28;20040;-71
2022/01/27 12:29:21;;;;;;;22.13;13.60;;;22.10;60.00;;;;;;5054058;28;20025;-72
2022/01/27 12:31:48;;;;;;;22.08;13.40;;;22.10;58.80;;;;;;5053192;28;20037;-72
2022/01/27 12:34:13;;;;;;;23.50;12.85;;;22.10;59.20;;;;;;5054167;28;20550;-72
2022/01/27 12:36:51;;;;;;;25.00;14.02;;;22.10;59.70;;;;;;5054212;28;20060;-72
2022/01/27 12:39:44;;;;;;;22.42;13.23;;;22.10;60.50;;;;;;5053729;28;20043;-72
2022/01/27 12:42:14;;;;;;;22.58;12.30;;;22.10;62.10;;;;;;5054155;28;20081;-72
2022/01/27 12:44:52;;;;;;;24.67;13.52;;;22.10;60.40;;;;;;5053119;28;20017;-71
2022/01/27 12:47:18;;;;;;;19.13;12.50;;;22.20;62.70;;;;;;5052170;28;20064;-71
2022/01/27 12:50:03;;;;;;;21.73;12.82;;;22.10;61.90;;;;;;5051798;28;20049;-72
2022/01/27 12:52:35;;;;;;;21.73;13.10;;;22.20;63.50;;;;;;5051396;28;20041;-72
2022/01/27 12:55:01;;;;;;;19.67;11.43;;;22.20;63.70;;;;;;5052914;28;20040;-72
2022/01/27 12:57:30;;;;;;;19.48;12.25;;;22.20;62.40;;;;;;5053614;28;20029;-72
2022/01/27 12:59:57;;;;;;;19.27;11.93;;;22.20;61.60;;;;;;5051911;28;20146;-72
2022/01/27 13:02:24;;;;;;;20.15;12.57;;;22.20;62.20;;;;;;5052408;28;20025;-72
2022/01/27 13:04:58;;;;;;;23.35;11.65;;;22.30;63.30;;;;;;5053942;28;20550;-72
2022/01/27 13:07:25;;;;;;;24.52;12.82;;;22.20;64.80;;;;;;5054043;28;20110;-72
2022/01/27 13:10:04;;;;;;;21.05;11.65;;;22.20;63.20;;;;;;5053189;28;20618;-71
2022/01/27 13:12:46;;;;;;;24.37;11.20;;;22.30;62.90;;;;;;5052615;28;20106;-72
2022/01/27 13:15:17;;;;;;;21.75;11.27;;;22.20;63.30;;;;;;5053320;28;20329;-72
2022/01/27 13:18:09;;;;;;;20.33;11.05;;;22.20;62.30;;;;;;5051428;28;20809;-72
2022/01/27 13:20:54;;;;;;;;;;;22.20;62.10;;;;;;5048581;28;20056;-72
2022/01/27 13:23:31;;;;;;;19.50;10.77;;;22.20;62.20;;;;;;5057331;28;20021;-72
2022/01/27 13:26:05;;;;;;;43.63;15.68;;;22.20;62.10;;;;;;5053610;28;20021;-72
2022/01/27 13:28:35;;;;;;;42.25;13.93;;;22.30;75.70;;;;;;5053318;28;20029;-72
2022/01/27 13:31:07;;;;;;;30.10;12.15;;;22.40;79.00;;;;;;5050137;28;20029;-72
2022/01/27 13:33:41;;;;;;;24.35;11.90;;;22.30;72.00;;;;;;5050453;28;20033;-72